Time;durP1;ratioP1;P1;durP2;ratioP2;P2;SDS_P1;SDS_P2;PMS_P1;PMS_P2;Temp;Humidity;BMP_temperature;BMP_pressure;BME280_temperature;BME280_humidity;BME280_pressure;Samples;Min_cycle;Max_cycle;Signal;HPM_P1;HPM_P2
2022/11/06 00:00:19;;;;;;;7.82;5.03;;;;;;;10.27;100.00;101300.78;10540045;28;20040;-65
2022/11/06 00:10:39;;;;;;;19.63;5.90;;;;;;;10.23;100.00;101283.22;10545405;28;20028;-66
2022/11/06 00:15:39;;;;;;;7.57;5.63;;;;;;;10.30;100.00;101276.06;10543706;28;20052;-66
2022/11/06 00:20:39;;;;;;;7.25;5.32;;;;;;;10.32;100.00;101268.59;10545151;28;20032;-66
2022/11/06 00:25:40;;;;;;;14.27;5.88;;;;;;;10.40;100.00;101268.53;10545524;28;20028;-66
2022/11/06 00:30:40;;;;;;;6.88;4.45;;;;;;;10.45;100.00;101265.25;10545807;28;20079;-66
2022/11/06 00:35:41;;;;;;;8.57;4.95;;;;;;;10.41;100.00;101270.19;10545364;28;20044;-67
2022/11/06 00:40:41;;;;;;;17.45;6.47;;;;;;;10.56;100.00;101255.78;10547527;28;20385;-67
2022/11/06 00:45:41;;;;;;;6.22;4.43;;;;;;;10.37;100.00;101257.19;10565766;28;20070;-67
2022/11/06 00:50:42;;;;;;;7.95;5.03;;;;;;;10.24;100.00;101263.25;10548828;28;20032;-67
2022/11/06 00:55:42;;;;;;;13.00;5.47;;;;;;;10.25;100.00;101271.19;10547818;28;20070;-69
2022/11/06 01:00:43;;;;;;;12.90;5.78;;;;;;;10.17;100.00;101267.72;10544802;28;20043;-70
2022/11/06 01:05:43;;;;;;;13.57;6.13;;;;;;;10.14;100.00;101260.81;10548749;28;20040;-70
2022/11/06 01:10:43;;;;;;;16.75;8.32;;;;;;;10.12;100.00;101271.00;10545478;28;20071;-73
2022/11/06 01:15:44;;;;;;;6.40;5.53;;;;;;;10.09;100.00;101257.00;10543226;28;20155;-73
2022/11/06 01:20:44;;;;;;;9.48;6.45;;;;;;;10.01;100.00;101258.75;10543499;28;20099;-73
2022/11/06 01:25:57;;;;;;;15.60;6.07;;;;;;;10.04;100.00;101235.91;10525552;28;20517;-73
2022/11/06 01:31:12;;;;;;;8.63;5.32;;;;;;;10.00;100.00;101246.25;10543059;28;20167;-76
2022/11/06 01:36:13;;;;;;;12.45;6.28;;;;;;;9.96;100.00;101244.94;10542627;28;20035;-75
2022/11/06 01:41:18;;;;;;;15.27;5.68;;;;;;;9.98;100.00;101251.00;10543035;28;20040;-75
2022/11/06 01:46:20;;;;;;;8.07;5.80;;;;;;;9.96;100.00;101244.13;10543477;28;20376;-77
2022/11/06 01:51:21;;;;;;;7.97;5.80;;;;;;;10.02;100.00;101241.50;10540942;28;20066;-77
2022/11/06 01:56:21;;;;;;;6.53;5.28;;;;;;;9.99;100.00;101244.59;10540831;28;20039;-74
2022/11/06 02:01:22;;;;;;;11.07;6.30;;;;;;;9.99;100.00;101244.59;10524959;28;20039;-72
2022/11/06 02:06:22;;;;;;;9.52;5.57;;;;;;;9.98;100.00;101234.75;10541970;28;20040;-72
2022/11/06 02:11:23;;;;;;;8.27;6.35;;;;;;;9.94;100.00;101225.34;10523673;28;20451;-72
2022/11/06 02:16:54;;;;;;;16.63;6.80;;;;;;;9.84;100.00;101226.66;10540160;28;20075;-72
2022/11/06 02:22:13;;;;;;;11.05;7.15;;;;;;;9.81;100.00;101219.75;10537430;28;20040;-71
2022/11/06 02:27:14;;;;;;;12.10;6.05;;;;;;;9.80;100.00;101212.66;10540457;28;20043;-70
2022/11/06 02:32:27;;;;;;;19.17;7.38;;;;;;;9.80;100.00;101215.38;10540841;28;20135;-70
2022/11/06 02:37:29;;;;;;;13.93;7.93;;;;;;;9.73;100.00;101204.44;10523692;28;20474;-69
2022/11/06 02:42:29;;;;;;;19.63;8.45;;;;;;;9.75;100.00;101205.09;10539429;28;20085;-70
2022/11/06 02:47:30;;;;;;;12.20;7.32;;;;;;;9.80;100.00;101201.84;10538977;28;20529;-71
2022/11/06 02:52:36;;;;;;;12.43;7.68;;;;;;;9.85;100.00;101204.81;10522003;28;20066;-70
2022/11/06 02:57:37;;;;;;;17.00;7.38;;;;;;;9.86;100.00;101195.69;10539375;28;20039;-71
2022/11/06 03:02:54;;;;;;;16.02;7.72;;;;;;;9.81;100.00;101200.81;10539923;28;20032;-70
2022/11/06 03:08:09;;;;;;;14.70;8.10;;;;;;;9.85;100.00;101188.59;10538961;28;20024;-71
2022/11/06 03:13:19;;;;;;;10.32;7.53;;;;;;;9.85;100.00;101166.13;10507574;28;20021;-70
2022/11/06 03:18:41;;;;;;;22.20;8.75;;;;;;;9.89;100.00;101175.53;10537575;28;20047;-70
2022/11/06 03:23:47;;;;;;;10.85;8.52;;;;;;;9.94;100.00;101176.66;10540133;28;20111;-70
2022/11/06 03:28:52;;;;;;;10.00;7.27;;;;;;;9.99;100.00;101171.53;10522357;28;20035;-70
2022/11/06 03:33:56;;;;;;;17.33;8.98;;;;;;;9.95;100.00;101153.97;10538626;28;20467;-69
2022/11/06 03:39:01;;;;;;;9.57;8.73;;;;;;;9.97;100.00;101164.63;10523102;28;20089;-70
2022/11/06 03:44:01;;;;;;;25.00;10.82;;;;;;;9.95;100.00;101151.28;10513565;28;20035;-71
2022/11/06 03:49:04;;;;;;;20.25;12.38;;;;;;;9.97;100.00;101135.69;10528836;28;20039;-70
2022/11/06 03:54:14;;;;;;;15.80;11.52;;;;;;;10.00;100.00;101121.81;10528205;28;20036;-69
2022/11/06 03:59:18;;;;;;;18.85;11.32;;;;;;;10.04;100.00;101122.25;10545939;28;20470;-70
2022/11/06 04:04:21;;;;;;;18.60;10.30;;;;;;;10.07;100.00;101113.75;10545267;28;20031;-70
2022/11/06 04:14:45;;;;;;;14.95;11.23;;;;;;;10.03;100.00;101098.94;10531551;28;20052;-70
2022/11/06 04:19:49;;;;;;;22.25;11.63;;;;;;;10.04;100.00;101099.78;10545459;28;20032;-70
2022/11/06 04:30:36;;;;;;;20.95;12.18;;;;;;;10.08;100.00;101106.47;10545360;28;20036;-71
2022/11/06 04:36:15;;;;;;;19.38;11.05;;;;;;;10.00;100.00;101089.34;10528717;28;20051;-72
2022/11/06 04:41:20;;;;;;;22.38;10.55;;;;;;;9.95;100.00;101094.47;10522901;28;20104;-76
2022/11/06 04:46:23;;;;;;;14.98;10.57;;;;;;;9.99;100.00;101087.66;10543549;28;20031;-76
2022/11/06 04:51:26;;;;;;;17.60;9.70;;;;;;;9.95;100.00;101083.63;10543034;28;20042;-73
2022/11/06 04:56:32;;;;;;;12.70;9.18;;;;;;;9.96;100.00;101084.50;10543148;28;20483;-71
2022/11/06 05:01:32;;;;;;;10.52;9.50;;;;;;;9.91;100.00;101079.66;10526711;28;20051;-72
2022/11/06 05:06:33;;;;;;;8.98;7.05;;;;;;;9.94;100.00;101083.84;10543222;28;20034;-72
2022/11/06 05:11:33;;;;;;;15.52;9.65;;;;;;;9.93;100.00;101072.19;10543608;28;20043;-74
2022/11/06 05:16:34;;;;;;;13.93;7.40;;;;;;;9.93;100.00;101065.94;10544020;28;20048;-73
2022/11/06 05:26:53;;;;;;;12.40;8.95;;;;;;;9.94;100.00;101046.81;10542578;28;20032;-72
2022/11/06 05:31:54;;;;;;;8.00;7.25;;;;;;;9.91;100.00;101030.13;10543500;28;20508;-71
2022/11/06 05:36:55;;;;;;;9.68;7.57;;;;;;;9.95;100.00;101043.06;10542574;28;20040;-70
2022/11/06 05:41:55;;;;;;;10.85;6.43;;;;;;;9.93;100.00;101023.50;10525114;28;20032;-69
2022/11/06 05:46:56;;;;;;;9.15;7.40;;;;;;;9.91;100.00;101030.94;10542047;28;20036;-70
2022/11/06 05:51:56;;;;;;;9.73;6.38;;;;;;;9.99;100.00;101014.63;10543654;28;20036;-70
2022/11/06 05:56:56;;;;;;;10.75;7.18;;;;;;;10.00;100.00;101023.56;10542411;28;20144;-70
2022/11/06 06:01:58;;;;;;;11.63;6.50;;;;;;;9.93;100.00;101011.84;10542314;28;20349;-70
2022/11/06 06:06:58;;;;;;;7.15;5.82;;;;;;;9.98;100.00;101002.09;10557028;28;20044;-69
2022/11/06 06:11:59;;;;;;;12.02;7.28;;;;;;;9.97;100.00;100997.72;10541396;28;20035;-70
2022/11/06 06:17:00;;;;;;;9.68;7.28;;;;;;;9.89;100.00;101003.28;10541423;28;20411;-70
2022/11/06 06:22:00;;;;;;;14.00;8.48;;;;;;;9.92;100.00;101000.19;10541205;28;20131;-70
2022/11/06 06:27:01;;;;;;;11.98;6.10;;;;;;;9.91;100.00;100998.50;10539366;28;20028;-69
2022/11/06 06:32:02;;;;;;;9.05;6.22;;;;;;;9.85;100.00;100993.84;10522068;28;20114;-72
2022/11/06 06:37:03;;;;;;;8.02;7.07;;;;;;;9.80;100.00;101004.41;10521891;28;20046;-71
2022/11/06 06:42:04;;;;;;;6.65;6.10;;;;;;;9.76;100.00;100981.47;10541304;28;20036;-72
2022/11/06 06:47:04;;;;;;;10.20;7.05;;;;;;;9.70;100.00;100982.22;10541053;28;20551;-72
2022/11/06 06:52:04;;;;;;;21.40;5.82;;;;;;;9.68;100.00;100966.19;10539375;28;20079;-72
2022/11/06 06:57:06;;;;;;;6.90;4.53;;;;;;;9.72;100.00;100978.31;10540434;28;20044;-73
2022/11/06 07:02:08;;;;;;;8.48;4.78;;;;;;;9.78;100.00;100972.13;10538900;28;20508;-71
2022/11/06 07:07:08;;;;;;;9.73;4.25;;;;;;;9.86;100.00;100965.78;10538700;28;20036;-71
2022/11/06 07:12:08;;;;;;;18.42;4.85;;;;;;;9.91;100.00;100965.19;10538868;28;20075;-71
2022/11/06 07:17:09;;;;;;;8.25;5.07;;;;;;;9.92;100.00;100970.44;10546378;28;20364;-70
2022/11/06 07:22:09;;;;;;;5.80;2.25;;;;;;;9.90;100.00;100974.34;10547740;28;20048;-71
2022/11/06 07:27:10;;;;;;;10.75;4.28;;;;;;;9.99;100.00;100976.75;10548211;28;20067;-71
2022/11/06 07:32:10;;;;;;;10.35;3.72;;;;;;;9.97;100.00;100975.25;10548836;28;20031;-70
2022/11/06 07:37:10;;;;;;;12.38;5.35;;;;;;;10.02;100.00;100957.44;10549199;28;20357;-72
2022/11/06 07:42:11;;;;;;;7.45;3.03;;;;;;;10.09;100.00;100962.06;10548011;28;20036;-71
2022/11/06 07:47:11;;;;;;;9.65;3.28;;;;;;;10.17;100.00;100968.16;10548409;28;20039;-70
2022/11/06 07:52:11;;;;;;;8.77;3.70;;;;;;;10.17;100.00;100981.69;10547033;28;20047;-72
2022/11/06 07:57:12;;;;;;;6.38;2.95;;;;;;;10.11;100.00;100976.22;10545203;28;20565;-72
2022/11/06 08:02:12;;;;;;;5.90;3.42;;;;;;;10.15;100.00;100978.38;10547009;28;20119;-71
2022/11/06 08:07:13;;;;;;;5.95;2.67;;;;;;;10.14;100.00;100971.25;10529166;28;20024;-71
2022/11/06 08:12:13;;;;;;;8.90;3.33;;;;;;;10.15;100.00;100962.13;10547429;28;20459;-71
2022/11/06 08:17:13;;;;;;;7.97;3.22;;;;;;;10.06;100.00;100960.59;10546412;28;20395;-72
2022/11/06 08:22:14;;;;;;;2.20;2.10;;;;;;;10.06;100.00;100957.03;10545730;28;20036;-73
2022/11/06 08:27:14;;;;;;;7.68;4.10;;;;;;;10.09;100.00;100952.06;10543591;28;20047;-72
2022/11/06 08:32:15;;;;;;;7.82;3.95;;;;;;;10.11;100.00;100941.03;10545069;28;20036;-71
2022/11/06 08:37:15;;;;;;;6.60;2.97;;;;;;;10.18;100.00;100931.16;10560172;28;20483;-72
2022/11/06 08:42:15;;;;;;;4.72;3.00;;;;;;;10.24;100.00;100911.41;10545424;28;20075;-72
2022/11/06 08:47:16;;;;;;;7.07;3.50;;;;;;;10.20;100.00;100904.72;10560191;28;20047;-71
2022/11/06 08:52:16;;;;;;;6.38;3.17;;;;;;;10.39;100.00;100903.22;10544902;28;20047;-71
2022/11/06 08:57:17;;;;;;;6.18;3.22;;;;;;;10.56;100.00;100903.75;10544292;28;20036;-71
2022/11/06 09:02:17;;;;;;;19.23;3.97;;;;;;;10.74;100.00;100893.28;10545477;28;20060;-77
2022/11/06 09:07:17;;;;;;;6.40;3.80;;;;;;;10.83;100.00;100899.38;10541996;28;20081;-71
2022/11/06 09:12:18;;;;;;;9.77;3.00;;;;;;;11.01;100.00;100897.00;10543804;28;20067;-71
2022/11/06 09:17:22;;;;;;;10.02;3.47;;;;;;;11.09;100.00;100882.41;10559120;28;20506;-72
2022/11/06 09:22:22;;;;;;;8.32;2.47;;;;;;;10.93;100.00;100895.25;10544227;28;20040;-73
2022/11/06 09:27:22;;;;;;;4.72;3.10;;;;;;;11.02;100.00;100886.97;10542469;28;20047;-71
2022/11/06 09:32:23;;;;;;;7.93;3.58;;;;;;;11.01;100.00;100888.00;10558785;28;20036;-74
2022/11/06 09:37:23;;;;;;;4.85;2.17;;;;;;;11.07;100.00;100862.81;10542678;28;20036;-73
2022/11/06 09:42:33;;;;;;;8.00;2.97;;;;;;;11.25;100.00;100863.09;10557778;28;20039;-72
2022/11/06 09:47:35;;;;;;;8.07;3.03;;;;;;;11.23;100.00;100854.34;10542311;28;20020;-71
2022/11/06 09:52:37;;;;;;;9.38;3.10;;;;;;;11.20;100.00;100843.91;10540856;28;20077;-72
2022/11/06 09:57:46;;;;;;;5.22;2.35;;;;;;;11.17;100.00;100860.59;10541145;28;20036;-73
2022/11/06 10:02:49;;;;;;;4.32;3.33;;;;;;;11.15;100.00;100833.66;10540351;28;20138;-72
2022/11/06 10:07:50;;;;;;;6.20;3.28;;;;;;;11.11;100.00;100853.25;10542476;28;20024;-73
2022/11/06 10:13:21;;;;;;;4.22;2.75;;;;;;;11.08;100.00;100831.97;10539794;28;20066;-72
2022/11/06 10:18:32;;;;;;;3.50;3.05;;;;;;;11.11;100.00;100837.00;10542440;28;20122;-70
2022/11/06 10:23:50;;;;;;;13.10;3.25;;;;;;;11.05;100.00;100832.38;10540456;28;20024;-71
2022/11/06 10:28:59;;;;;;;3.10;2.80;;;;;;;11.00;100.00;100824.00;10522590;28;20483;-71
2022/11/06 10:34:16;;;;;;;9.45;2.97;;;;;;;11.03;100.00;100824.44;10541130;28;20422;-71
2022/11/06 10:39:22;;;;;;;15.35;3.88;;;;;;;10.99;100.00;100812.34;10539040;28;20040;-72
2022/11/06 10:45:18;;;;;;;9.32;3.88;;;;;;;11.01;100.00;100796.72;10539369;28;20032;-72
2022/11/06 10:50:19;;;;;;;2.10;2.00;;;;;;;10.92;100.00;100790.66;10505717;28;20380;-72
2022/11/06 10:55:43;;;;;;;3.80;3.13;;;;;;;10.87;100.00;100782.28;10521786;28;20040;-72
2022/11/06 11:00:44;;;;;;;4.68;3.08;;;;;;;10.91;100.00;100771.88;10539963;28;20464;-73
2022/11/06 11:05:44;;;;;;;7.53;3.08;;;;;;;10.84;100.00;100777.25;10538155;28;20093;-72
2022/11/06 11:10:44;;;;;;;4.22;3.03;;;;;;;10.87;100.00;100767.91;10539404;28;20028;-73
2022/11/06 11:15:46;;;;;;;4.55;3.10;;;;;;;10.79;100.00;100771.63;10520858;28;20101;-73
2022/11/06 11:20:51;;;;;;;3.55;2.83;;;;;;;10.68;100.00;100753.25;10538876;28;20039;-73
2022/11/06 11:25:55;;;;;;;9.60;4.05;;;;;;;10.69;100.00;100757.63;10522220;28;20024;-78
2022/11/06 11:31:12;;;;;;;4.07;3.25;;;;;;;10.61;100.00;100749.66;10538158;28;20028;-73
2022/11/06 11:36:12;;;;;;;5.32;3.10;;;;;;;10.58;100.00;100739.25;10538348;28;20032;-73
2022/11/06 11:41:19;;;;;;;14.50;3.42;;;;;;;10.55;100.00;100717.97;10539171;28;20388;-74
2022/11/06 11:46:19;;;;;;;6.50;3.08;;;;;;;10.63;100.00;100710.53;10538905;28;20068;-76
2022/11/06 11:51:39;;;;;;;5.25;3.45;;;;;;;10.68;100.00;100701.78;10520828;28;20075;-73
2022/11/06 11:57:04;;;;;;;5.82;2.60;;;;;;;10.68;100.00;100685.53;10522627;28;20036;-75
2022/11/06 12:02:17;;;;;;;4.50;2.95;;;;;;;10.81;100.00;100684.75;10528569;28;20118;-73
2022/11/06 12:07:23;;;;;;;8.20;2.58;;;;;;;10.80;100.00;100674.94;10546186;28;20055;-74
2022/11/06 12:12:27;;;;;;;10.10;2.93;;;;;;;10.84;100.00;100655.38;10547223;28;20032;-72
2022/11/06 12:17:29;;;;;;;8.40;3.13;;;;;;;10.88;100.00;100653.06;10528793;28;20066;-73
2022/11/06 12:22:32;;;;;;;8.02;3.65;;;;;;;10.88;100.00;100634.97;10553702;28;20028;-74
2022/11/06 12:27:36;;;;;;;5.97;2.17;;;;;;;10.92;100.00;100638.09;10546225;28;20040;-74
2022/11/06 12:32:57;;;;;;;6.45;2.67;;;;;;;10.94;100.00;100620.59;10554998;28;20050;-73
2022/11/06 12:38:30;;;;;;;3.72;3.30;;;;;;;10.84;100.00;100636.41;10545493;28;20043;-72
2022/11/06 12:43:46;;;;;;;3.08;2.78;;;;;;;10.76;100.00;100619.53;10538030;28;20456;-75
2022/11/06 12:48:53;;;;;;;13.35;3.42;;;;;;;10.67;100.00;100617.00;10545995;28;20032;-74
2022/11/06 12:54:23;;;;;;;4.60;3.05;;;;;;;10.56;100.00;100623.03;10546276;28;20478;-74
2022/11/06 12:59:47;;;;;;;7.15;2.63;;;;;;;10.50;100.00;100629.25;10542850;28;20425;-74
2022/11/06 13:04:51;;;;;;;5.57;4.53;;;;;;;10.42;100.00;100624.84;10544743;28;20135;-76
2022/11/06 13:10:01;;;;;;;6.53;3.10;;;;;;;10.34;100.00;100616.06;10543014;28;20031;-75
2022/11/06 13:15:10;;;;;;;9.02;2.95;;;;;;;10.31;100.00;100611.91;10542122;28;20193;-76
2022/11/06 13:20:51;;;;;;;4.35;3.45;;;;;;;10.27;100.00;100607.91;10543899;28;20080;-77
2022/11/06 13:26:13;;;;;;;5.63;3.25;;;;;;;10.23;100.00;100612.88;10542914;28;20036;-76
2022/11/06 13:31:15;;;;;;;5.72;4.07;;;;;;;10.10;100.00;100602.00;10542856;28;20031;-74
2022/11/06 13:36:16;;;;;;;8.35;3.00;;;;;;;10.00;100.00;100599.69;10506974;28;20055;-74
2022/11/06 13:41:23;;;;;;;4.25;2.85;;;;;;;9.99;100.00;100583.66;10524053;28;20060;-76
2022/11/06 13:46:55;;;;;;;11.02;3.72;;;;;;;9.98;100.00;100573.84;10541051;28;20024;-74
2022/11/06 13:52:18;;;;;;;8.55;4.75;;;;;;;9.96;100.00;100574.06;10542564;28;20115;-73
2022/11/06 13:57:46;;;;;;;8.23;3.63;;;;;;;9.88;100.00;100568.81;10530414;28;20068;-76
2022/11/06 14:03:04;;;;;;;4.38;2.63;;;;;;;9.89;100.00;100573.22;10541599;28;20036;-77
2022/11/06 14:08:06;;;;;;;4.15;3.00;;;;;;;9.84;100.00;100558.63;10541944;28;20039;-76
2022/11/06 14:13:07;;;;;;;4.40;3.03;;;;;;;9.78;100.00;100562.94;10539789;28;20341;-77
2022/11/06 14:18:12;;;;;;;7.28;3.85;;;;;;;9.75;100.00;100544.41;10523183;28;20060;-74
2022/11/06 14:23:29;;;;;;;2.03;1.77;;;;;;;9.61;100.00;100531.88;10538306;28;20412;-73
2022/11/06 14:28:37;;;;;;;3.17;2.75;;;;;;;9.58;100.00;100513.38;10541818;28;20067;-73
2022/11/06 14:33:43;;;;;;;2.45;2.15;;;;;;;9.42;100.00;100509.94;10507642;28;20032;-75
2022/11/06 14:38:44;;;;;;;2.95;2.33;;;;;;;9.31;100.00;100489.72;10540799;28;20035;-73
2022/11/06 14:43:47;;;;;;;8.15;2.72;;;;;;;9.13;100.00;100502.09;10539254;28;20043;-77
2022/11/06 14:48:49;;;;;;;4.13;2.65;;;;;;;9.00;100.00;100484.75;10506575;28;20214;-75
2022/11/06 14:53:51;;;;;;;5.88;2.88;;;;;;;8.98;100.00;100469.78;10521819;28;20032;-74
2022/11/06 14:59:15;;;;;;;6.18;2.03;;;;;;;8.86;100.00;100453.28;10538897;28;20032;-73
2022/11/06 15:04:19;;;;;;;3.85;3.15;;;;;;;8.87;100.00;100435.22;10521148;28;20028;-77
2022/11/06 15:09:22;;;;;;;3.88;2.55;;;;;;;8.85;100.00;100443.53;10537404;28;20396;-74
2022/11/06 15:14:23;;;;;;;9.27;2.92;;;;;;;8.72;100.00;100443.44;10539287;28;20036;-74
2022/11/06 15:19:26;;;;;;;5.82;2.63;;;;;;;8.61;100.00;100415.09;10540052;28;20055;-75
2022/11/06 15:24:35;;;;;;;3.97;2.40;;;;;;;8.51;100.00;100434.34;10538462;28;20426;-73
2022/11/06 15:29:36;;;;;;;0.50;0.50;;;;;;;8.50;100.00;100429.97;10537887;28;20104;-75
2022/11/06 15:34:38;;;;;;;0.52;0.52;;;;;;;8.43;100.00;100428.25;10521493;28;20468;-74
2022/11/06 15:39:55;;;;;;;0.40;0.40;;;;;;;8.41;100.00;100425.75;10545601;28;20028;-75
2022/11/06 15:45:27;;;;;;;0.43;0.43;;;;;;;8.36;100.00;100412.00;10546445;28;20032;-74
2022/11/06 15:50:31;;;;;;;1.20;1.20;;;;;;;8.29;100.00;100408.38;10501225;28;20071;-72
2022/11/06 15:55:33;;;;;;;0.40;0.40;;;;;;;8.21;100.00;100400.44;10547711;28;20058;-74
2022/11/06 16:00:38;;;;;;;1.55;1.55;;;;;;;8.18;100.00;100398.97;10548408;28;20067;-75
2022/11/06 16:05:38;;;;;;;0.40;0.40;;;;;;;8.07;100.00;100392.25;10547651;28;20051;-73
2022/11/06 16:10:38;;;;;;;1.15;1.15;;;;;;;8.05;100.00;100378.09;10562007;28;20479;-75
2022/11/06 16:15:48;;;;;;;0.50;0.50;;;;;;;8.00;100.00;100385.94;10546325;28;20117;-75
2022/11/06 16:20:56;;;;;;;0.50;0.50;;;;;;;8.00;100.00;100377.84;10546022;28;20352;-74
2022/11/06 16:26:01;;;;;;;0.40;0.40;;;;;;;7.98;100.00;100390.69;10545579;28;20495;-73
2022/11/06 16:31:15;;;;;;;0.40;0.40;;;;;;;7.95;100.00;100379.47;10546364;28;20039;-74
2022/11/06 16:36:15;;;;;;;0.40;0.40;;;;;;;8.00;100.00;100377.84;10543982;28;20394;-74
2022/11/06 16:47:03;;;;;;;0.55;0.55;;;;;;;8.09;100.00;100397.44;10543494;28;20032;-76
2022/11/06 16:52:27;;;;;;;0.55;0.55;;;;;;;8.06;100.00;100393.25;10543126;28;20024;-77
2022/11/06 16:57:51;;;;;;;0.40;0.40;;;;;;;8.07;100.00;100369.81;10527489;28;20028;-76
2022/11/06 17:02:56;;;;;;;0.50;0.50;;;;;;;8.12;100.00;100361.97;10529565;28;20052;-75
2022/11/06 17:08:30;;;;;;;0.50;0.50;;;;;;;8.12;100.00;100372.78;10544033;28;20026;-72
2022/11/06 17:13:31;;;;;;;0.50;0.50;;;;;;;8.14;100.00;100374.25;10543861;28;20040;-73
2022/11/06 17:18:35;;;;;;;0.73;0.73;;;;;;;8.16;100.00;100365.94;10544518;28;20052;-74
2022/11/06 17:23:36;;;;;;;0.57;0.57;;;;;;;8.21;100.00;100365.38;10542480;28;20051;-74
2022/11/06 17:28:36;;;;;;;0.43;0.43;;;;;;;8.27;100.00;100364.59;10560015;28;20486;-75
2022/11/06 17:33:37;;;;;;;0.60;0.60;;;;;;;8.28;100.00;100374.34;10542959;28;20036;-75
2022/11/06 17:38:38;;;;;;;0.88;0.88;;;;;;;8.39;100.00;100371.13;10558397;28;20040;-74
2022/11/06 17:43:38;;;;;;;1.77;1.65;;;;;;;8.43;100.00;100366.22;10544315;28;20040;-74
2022/11/06 17:48:38;;;;;;;0.75;0.75;;;;;;;8.46;100.00;100355.84;10541231;28;20492;-72
2022/11/06 17:53:39;;;;;;;2.92;2.83;;;;;;;8.53;100.00;100364.00;10524677;28;20054;-74
2022/11/06 17:58:39;;;;;;;0.88;0.88;;;;;;;8.59;100.00;100377.53;10539947;28;20443;-74
2022/11/06 18:03:43;;;;;;;0.45;0.45;;;;;;;8.68;100.00;100371.97;10542174;28;20032;-75
2022/11/06 18:08:43;;;;;;;0.50;0.50;;;;;;;8.73;100.00;100369.50;10540394;28;20028;-75
2022/11/06 18:13:44;;;;;;;0.50;0.50;;;;;;;8.81;100.00;100363.97;10541741;28;20375;-75
2022/11/06 18:18:44;;;;;;;0.50;0.50;;;;;;;8.90;100.00;100351.94;10540755;28;20056;-73
2022/11/06 18:23:45;;;;;;;0.30;0.30;;;;;;;9.00;100.00;100371.34;10541413;28;20142;-73
2022/11/06 18:28:45;;;;;;;0.30;0.30;;;;;;;9.02;100.00;100342.25;10539312;28;20039;-74
2022/11/06 18:33:46;;;;;;;0.60;0.60;;;;;;;9.07;100.00;100355.97;10541069;28;20040;-75
2022/11/06 18:38:46;;;;;;;0.50;0.50;;;;;;;9.04;100.00;100340.19;10557065;28;20040;-78
2022/11/06 18:43:46;;;;;;;0.50;0.50;;;;;;;9.11;100.00;100336.69;10540375;28;20044;-77
2022/11/06 18:48:47;;;;;;;0.40;0.40;;;;;;;9.11;100.00;100315.91;10557226;28;20043;-75
2022/11/06 18:53:49;;;;;;;0.50;0.50;;;;;;;9.12;100.00;100316.72;10543750;28;20035;-74
2022/11/06 18:58:49;;;;;;;1.20;1.20;;;;;;;9.09;100.00;100328.75;10558980;28;20547;-74
2022/11/06 19:03:50;;;;;;;0.50;0.50;;;;;;;9.15;100.00;100351.44;10545585;28;20115;-76
2022/11/06 19:08:50;;;;;;;0.68;0.68;;;;;;;9.19;100.00;100360.78;10545275;28;20024;-75
2022/11/06 19:13:51;;;;;;;0.50;0.50;;;;;;;9.26;100.00;100345.47;10554434;28;20036;-75
2022/11/06 19:18:51;;;;;;;2.53;2.38;;;;;;;9.33;100.00;100338.22;10554146;28;20056;-75
2022/11/06 19:23:52;;;;;;;0.73;0.73;;;;;;;9.41;100.00;100334.47;10555494;28;20040;-75
2022/11/06 19:28:53;;;;;;;0.40;0.40;;;;;;;9.53;100.00;100346.38;10560659;28;20036;-74
2022/11/06 19:33:57;;;;;;;1.30;1.30;;;;;;;9.57;100.00;100334.09;10556278;28;20090;-74
2022/11/06 19:38:57;;;;;;;0.50;0.50;;;;;;;9.55;100.00;100347.84;10541978;28;20098;-73
2022/11/06 19:43:57;;;;;;;0.50;0.50;;;;;;;9.65;100.00;100350.13;10540083;28;20466;-73
2022/11/06 19:48:58;;;;;;;0.70;0.70;;;;;;;9.67;100.00;100339.13;10554953;28;20024;-74
2022/11/06 19:54:00;;;;;;;0.68;0.68;;;;;;;9.73;100.00;100365.31;10556124;28;20036;-74
2022/11/06 19:59:01;;;;;;;0.60;0.60;;;;;;;9.82;100.00;100355.16;10554907;28;20043;-74
2022/11/06 20:04:01;;;;;;;11.73;7.68;;;;;;;9.84;100.00;100367.44;10554573;28;20466;-72
2022/11/06 20:09:01;;;;;;;8.15;5.70;;;;;;;9.93;100.00;100360.78;10551438;28;20527;-73
2022/11/06 20:14:02;;;;;;;9.15;6.10;;;;;;;9.90;100.00;100353.09;10552946;28;20064;-73
2022/11/06 20:19:02;;;;;;;12.05;6.68;;;;;;;9.90;100.00;100368.50;10552321;28;20083;-72
2022/11/06 20:24:03;;;;;;;8.02;6.45;;;;;;;9.91;100.00;100365.56;10546405;28;20079;-73
2022/11/06 20:29:04;;;;;;;15.20;5.85;;;;;;;9.89;100.00;100364.09;10546482;28;20071;-71
2022/11/06 20:34:04;;;;;;;11.95;6.25;;;;;;;9.81;100.00;100364.31;10545768;28;20066;-73
2022/11/06 20:39:04;;;;;;;7.38;5.05;;;;;;;9.72;100.00;100393.41;10544239;28;20067;-73
2022/11/06 20:44:05;;;;;;;16.42;8.23;;;;;;;9.64;100.00;100405.25;10545420;28;20439;-73
2022/11/06 20:49:05;;;;;;;9.70;5.20;;;;;;;9.65;100.00;100397.97;10526785;28;20081;-74
2022/11/06 20:54:06;;;;;;;16.05;5.97;;;;;;;9.66;100.00;100410.44;10542889;28;20532;-73
2022/11/06 20:59:06;;;;;;;5.97;5.43;;;;;;;9.70;100.00;100412.56;10545140;28;20036;-72
2022/11/06 21:04:06;;;;;;;13.80;6.15;;;;;;;9.70;100.00;100417.09;10526102;28;20036;-71
2022/11/06 21:09:07;;;;;;;19.67;7.47;;;;;;;9.77;100.00;100428.78;10543136;28;20085;-73
2022/11/06 21:14:07;;;;;;;8.23;5.93;;;;;;;9.87;100.00;100437.34;10544021;28;20111;-72
2022/11/06 21:19:08;;;;;;;9.05;6.28;;;;;;;9.96;100.00;100443.41;10544268;28;20064;-73
2022/11/06 21:24:08;;;;;;;8.52;5.45;;;;;;;10.08;100.00;100451.72;10544512;28;20028;-74
2022/11/06 21:29:09;;;;;;;7.93;5.45;;;;;;;10.03;100.00;100446.94;10544825;28;20395;-73
2022/11/06 21:34:09;;;;;;;7.47;5.72;;;;;;;9.96;100.00;100443.41;10540894;28;20479;-73
2022/11/06 21:39:15;;;;;;;4.97;4.47;;;;;;;10.08;100.00;100455.25;10541411;28;20032;-77
2022/11/06 21:44:16;;;;;;;9.75;4.85;;;;;;;10.10;100.00;100461.31;10544218;28;20020;-75
2022/11/06 21:49:17;;;;;;;7.80;5.32;;;;;;;10.22;100.00;100470.50;10541467;28;20105;-76
2022/11/06 21:59:36;;;;;;;9.40;6.20;;;;;;;10.37;100.00;100462.25;10541664;28;20032;-77
2022/11/06 22:04:36;;;;;;;12.40;5.10;;;;;;;10.33;100.00;100474.50;10542377;28;20036;-76
2022/11/06 22:09:36;;;;;;;11.60;5.68;;;;;;;10.31;100.00;100483.88;10539387;28;20365;-75
2022/11/06 22:14:37;;;;;;;8.65;5.35;;;;;;;10.25;100.00;100494.44;10541864;28;20047;-74
2022/11/06 22:19:38;;;;;;;8.32;5.32;;;;;;;10.30;100.00;100474.06;10541976;28;20059;-75
2022/11/06 22:24:38;;;;;;;7.35;5.93;;;;;;;10.39;100.00;100508.03;10541028;28;20051;-75
2022/11/06 22:29:39;;;;;;;12.07;5.90;;;;;;;10.42;100.00;100508.44;10540732;28;20035;-75
2022/11/06 22:34:39;;;;;;;10.82;6.05;;;;;;;10.42;100.00;100507.63;10539698;28;20440;-75
2022/11/06 22:39:40;;;;;;;7.13;6.00;;;;;;;10.44;100.00;100483.91;10541284;28;20094;-75
2022/11/06 22:44:40;;;;;;;10.43;6.22;;;;;;;10.50;100.00;100506.56;10538896;28;20032;-74
2022/11/06 22:49:40;;;;;;;6.63;5.35;;;;;;;10.42;100.00;100497.63;10540979;28;20028;-73
2022/11/06 22:54:41;;;;;;;9.52;5.78;;;;;;;10.31;100.00;100521.78;10538514;28;20502;-72
2022/11/06 22:59:41;;;;;;;7.32;5.00;;;;;;;10.18;100.00;100517.97;10556079;28;20089;-74
2022/11/06 23:04:41;;;;;;;10.75;4.28;;;;;;;10.19;100.00;100525.03;10539025;28;20031;-74
2022/11/06 23:09:42;;;;;;;8.65;3.85;;;;;;;10.20;100.00;100523.16;10539305;28;20399;-72
2022/11/06 23:14:42;;;;;;;6.70;3.85;;;;;;;10.25;100.00;100523.38;10538671;28;20047;-73
2022/11/06 23:19:43;;;;;;;9.73;5.35;;;;;;;10.30;100.00;100530.91;10555103;28;20055;-73
2022/11/06 23:24:43;;;;;;;4.55;3.67;;;;;;;10.31;100.00;100533.44;10539779;28;20034;-73
2022/11/06 23:29:44;;;;;;;8.73;3.67;;;;;;;10.28;100.00;100546.53;10537859;28;20063;-73
2022/11/06 23:34:44;;;;;;;7.10;4.10;;;;;;;10.30;100.00;100541.72;10538263;28;20044;-73
2022/11/06 23:39:44;;;;;;;17.45;4.97;;;;;;;10.27;100.00;100542.97;10522579;28;20039;-74